createdAt,value
2022-12-09T00:01:40.372Z,96.12531
2022-12-09T00:06:42.190Z,94.66191
2022-12-09T00:11:43.684Z,96.39158
2022-12-09T00:16:45.391Z,95.78416
2022-12-09T00:21:47.355Z,96.99707
2022-12-09T00:26:48.839Z,99.54856
2022-12-09T00:31:50.429Z,95.84603
2022-12-09T00:36:52.068Z,97.91892
2022-12-09T00:41:53.589Z,96.86478
2022-12-09T00:46:55.477Z,94.13665
2022-12-09T00:51:57.543Z,98.63629
2022-12-09T00:56:59.171Z,94.77933
2022-12-09T01:02:01.016Z,99.64875
2022-12-09T01:07:02.916Z,100
2022-12-09T01:12:04.647Z,100
2022-12-09T01:17:06.317Z,100
2022-12-09T01:22:08.395Z,100
2022-12-09T01:27:10.095Z,100
2022-12-09T01:32:11.829Z,100
2022-12-09T01:37:13.721Z,100
2022-12-09T01:42:15.161Z,100
2022-12-09T01:47:16.974Z,100
2022-12-09T01:52:19.076Z,100
2022-12-09T01:57:20.746Z,100
2022-12-09T02:02:22.399Z,100
2022-12-09T02:07:24.027Z,100
2022-12-09T02:12:25.540Z,100
2022-12-09T02:17:27.203Z,100
2022-12-09T02:22:29.354Z,100
2022-12-09T02:27:31.147Z,100
2022-12-09T02:32:32.818Z,100
2022-12-09T02:37:34.427Z,100
2022-12-09T02:42:36.145Z,100
2022-12-09T02:47:38.012Z,100
2022-12-09T02:52:40.552Z,100
2022-12-09T02:57:42.392Z,100
2022-12-09T03:02:44.158Z,100
2022-12-09T03:07:45.741Z,100
2022-12-09T03:12:47.375Z,100
2022-12-09T03:17:49.369Z,100
2022-12-09T03:22:51.969Z,100
2022-12-09T03:27:53.590Z,100
2022-12-09T03:32:55.765Z,100
2022-12-09T03:37:57.633Z,100
2022-12-09T03:42:59.559Z,100
2022-12-09T03:48:01.432Z,100
2022-12-09T03:53:03.196Z,100
2022-12-09T03:58:05.056Z,100
2022-12-09T04:03:06.800Z,100
2022-12-09T04:08:08.633Z,100
2022-12-09T04:13:10.527Z,100
2022-12-09T04:18:12.337Z,100
2022-12-09T04:23:14.133Z,100
2022-12-09T04:28:15.888Z,100
2022-12-09T04:33:17.584Z,100
2022-12-09T04:38:19.164Z,100
2022-12-09T04:43:21.109Z,100
2022-12-09T04:48:22.883Z,100
2022-12-09T04:53:24.970Z,100
2022-12-09T04:58:26.767Z,100
2022-12-09T05:03:28.727Z,100
2022-12-09T05:08:31.837Z,100
2022-12-09T05:13:34.264Z,100
2022-12-09T05:18:36.124Z,100
2022-12-09T05:23:38.477Z,100
2022-12-09T05:28:40.317Z,100
2022-12-09T05:33:42.301Z,100
2022-12-09T05:38:44.460Z,100
2022-12-09T05:43:46.512Z,100
2022-12-09T05:48:48.396Z,100
2022-12-09T05:53:50.481Z,100
2022-12-09T05:58:52.196Z,100
2022-12-09T06:03:54.222Z,100
2022-12-09T06:08:56.374Z,100
2022-12-09T06:13:58.357Z,100
2022-12-09T06:19:00.104Z,100
2022-12-09T06:24:02.036Z,100
2022-12-09T06:29:04.286Z,100
2022-12-09T06:34:06.147Z,99.07924
2022-12-09T06:39:10.044Z,100
2022-12-09T06:44:15.835Z,100
2022-12-09T06:49:21.594Z,100
2022-12-09T06:54:23.689Z,100
2022-12-09T06:59:25.449Z,98.51484
2022-12-09T07:04:27.479Z,100
2022-12-09T07:09:29.805Z,94.88122
2022-12-09T07:14:31.977Z,95.38762
2022-12-09T07:19:33.928Z,93.87513
2022-12-09T07:24:36.463Z,90.60403
2022-12-09T07:29:38.408Z,86.85981
2022-12-09T07:34:40.574Z,80.88873
2022-12-09T07:39:42.526Z,81.15438
2022-12-09T07:44:44.276Z,84.44157
2022-12-09T07:49:46.053Z,86.31842
2022-12-09T07:54:47.852Z,84.2409
2022-12-09T07:59:49.940Z,81.07123
2022-12-09T08:04:51.965Z,79.41902
2022-12-09T08:09:54.136Z,69.34651
2022-12-09T08:14:56.039Z,75.45146
2022-12-09T08:19:58.143Z,75.62169
2022-12-09T08:25:00.550Z,76.66877
2022-12-09T08:30:02.633Z,73.32018
2022-12-09T08:35:04.649Z,74.98053
2022-12-09T08:40:06.694Z,74.60628
2022-12-09T08:45:09.314Z,74.26076
2022-12-09T08:50:17.807Z,78.41846
2022-12-09T08:55:20.472Z,74.9916
2022-12-09T09:00:22.459Z,72.86836
2022-12-09T09:05:24.148Z,70.5609
2022-12-09T09:10:26.686Z,68.25498
2022-12-09T09:15:28.421Z,64.82345
2022-12-09T09:20:30.213Z,63.58136
2022-12-09T09:25:32.446Z,62.82439
2022-12-09T09:30:34.569Z,58.42372
2022-12-09T09:35:36.626Z,63.2765
2022-12-09T09:40:38.705Z,65.95172
2022-12-09T09:45:40.500Z,61.68786
2022-12-09T09:50:42.768Z,59.71238
2022-12-09T09:55:44.931Z,55.72449
2022-12-09T10:00:47.772Z,59.84371
2022-12-09T10:05:50.281Z,57.47075
2022-12-09T10:10:52.662Z,59.39114
2022-12-09T10:15:54.917Z,53.73634
2022-12-09T10:20:57.232Z,57.20483
2022-12-09T10:25:59.543Z,55.21107
2022-12-09T10:31:01.763Z,53.04176
2022-12-09T10:36:03.577Z,55.55679
2022-12-09T10:41:05.200Z,58.05877
2022-12-09T10:46:18.784Z,56.51898
2022-12-09T10:51:21.452Z,58.83903
2022-12-09T10:56:23.490Z,59.69952
2022-12-09T11:01:25.467Z,60.05848
2022-12-09T11:06:27.365Z,60.11503
2022-12-09T11:11:29.345Z,64.16921
2022-12-09T11:16:31.294Z,66.19316
2022-12-09T11:21:33.435Z,67.98755
2022-12-09T11:26:35.844Z,88.36806
2022-12-09T11:31:37.575Z,100
2022-12-09T11:36:42.368Z,100
2022-12-09T11:41:45.508Z,100
2022-12-09T11:46:47.133Z,100
2022-12-09T11:51:48.673Z,100
2022-12-09T11:56:57.938Z,100
2022-12-09T12:01:59.667Z,100
2022-12-09T12:07:01.178Z,100
2022-12-09T12:12:02.764Z,100
2022-12-09T12:17:04.435Z,100
2022-12-09T12:22:05.940Z,100
2022-12-09T12:27:07.657Z,100
2022-12-09T12:32:09.712Z,100
2022-12-09T12:37:11.300Z,100
2022-12-09T12:42:12.836Z,100
2022-12-09T12:47:14.345Z,100
2022-12-09T12:52:39.431Z,100
2022-12-09T12:57:55.935Z,100
2022-12-09T13:03:00.832Z,100
2022-12-09T13:08:04.710Z,100
2022-12-09T13:13:06.231Z,100
2022-12-09T13:18:07.751Z,100
2022-12-09T13:23:09.314Z,100
2022-12-09T13:28:11.217Z,100
2022-12-09T13:33:12.783Z,100
2022-12-09T13:38:14.216Z,100
2022-12-09T13:43:15.783Z,100
2022-12-09T13:48:17.710Z,100
2022-12-09T13:53:19.257Z,100
2022-12-09T13:58:21.009Z,100
2022-12-09T14:03:22.717Z,100
2022-12-09T14:08:24.437Z,100
2022-12-09T14:13:26.020Z,100
2022-12-09T14:18:27.751Z,100
2022-12-09T14:23:29.258Z,100
2022-12-09T14:28:30.996Z,100
2022-12-09T14:33:32.654Z,100
2022-12-09T14:38:34.216Z,100
2022-12-09T14:43:35.922Z,100
2022-12-09T14:48:37.884Z,100
2022-12-09T14:53:39.343Z,100
2022-12-09T14:58:40.994Z,100
2022-12-09T15:03:45.751Z,100
2022-12-09T15:08:47.509Z,100
2022-12-09T15:13:49.031Z,100
2022-12-09T15:18:50.503Z,100
2022-12-09T15:23:51.985Z,100
2022-12-09T15:28:53.676Z,100
2022-12-09T15:33:55.159Z,100
2022-12-09T15:38:57.332Z,100
2022-12-09T15:43:58.828Z,100
2022-12-09T15:49:00.552Z,100
2022-12-09T15:54:02.123Z,100
2022-12-09T15:59:03.889Z,100
2022-12-09T16:04:05.305Z,100
2022-12-09T16:09:06.801Z,100
2022-12-09T16:14:08.272Z,100
2022-12-09T16:19:09.845Z,100
2022-12-09T16:24:11.412Z,100
2022-12-09T16:29:13.259Z,100
2022-12-09T16:34:14.828Z,100
2022-12-09T16:39:16.264Z,100
2022-12-09T16:44:18.257Z,100
2022-12-09T16:49:19.798Z,100
2022-12-09T16:54:21.270Z,100
2022-12-09T16:59:23.115Z,100
2022-12-09T17:04:24.751Z,100
2022-12-09T17:09:26.235Z,100
2022-12-09T17:14:28.747Z,100
2022-12-09T17:19:30.190Z,100
2022-12-09T17:24:31.805Z,100
2022-12-09T17:29:33.513Z,100
2022-12-09T17:34:36.659Z,100
2022-12-09T17:39:38.428Z,100
2022-12-09T17:44:40.150Z,100
2022-12-09T17:49:41.582Z,100
2022-12-09T17:54:43.133Z,100
2022-12-09T17:59:44.823Z,100
2022-12-09T18:04:46.298Z,100
2022-12-09T18:09:54.183Z,100
2022-12-09T18:14:56.110Z,100
2022-12-09T18:19:57.581Z,100
2022-12-09T18:24:59.046Z,100
2022-12-09T18:30:00.692Z,100
2022-12-09T18:35:02.263Z,100
2022-12-09T18:40:03.908Z,100
2022-12-09T18:45:05.546Z,100
2022-12-09T18:50:07.567Z,100
2022-12-09T18:55:09.342Z,100
2022-12-09T19:00:11.016Z,100
2022-12-09T19:05:12.471Z,100
2022-12-09T19:10:13.951Z,100
2022-12-09T19:15:16.477Z,100
2022-12-09T19:20:17.956Z,100
2022-12-09T19:25:19.584Z,100
2022-12-09T19:30:21.191Z,100
2022-12-09T19:35:22.647Z,100
2022-12-09T19:40:24.095Z,100
2022-12-09T19:45:25.717Z,100
2022-12-09T19:50:27.186Z,100
2022-12-09T19:55:29.292Z,100
2022-12-09T20:00:31.222Z,100
2022-12-09T20:05:32.987Z,100
2022-12-09T20:10:34.461Z,100
2022-12-09T20:15:36.058Z,100
2022-12-09T20:20:37.566Z,100
2022-12-09T20:25:39.097Z,100
2022-12-09T20:30:40.811Z,100
2022-12-09T20:35:42.298Z,100
2022-12-09T20:40:43.815Z,100
2022-12-09T20:45:46.419Z,100
2022-12-09T20:50:48.672Z,100
2022-12-09T20:55:50.138Z,100
2022-12-09T21:00:51.923Z,100
2022-12-09T21:05:53.424Z,100
2022-12-09T21:10:54.944Z,100
2022-12-09T21:15:56.526Z,100
2022-12-09T21:20:58.130Z,100
2022-12-09T21:25:59.576Z,100
2022-12-09T21:31:01.454Z,100
2022-12-09T21:36:02.983Z,100
2022-12-09T21:41:04.444Z,100
2022-12-09T21:46:06.600Z,100
2022-12-09T21:51:09.495Z,100
2022-12-09T21:56:12.186Z,100
2022-12-09T22:01:13.951Z,100
2022-12-09T22:06:15.506Z,100
2022-12-09T22:11:16.999Z,100
2022-12-09T22:16:18.617Z,100
2022-12-09T22:21:25.252Z,100
2022-12-09T22:26:27.393Z,100
2022-12-09T22:31:30.661Z,100
2022-12-09T22:36:32.276Z,100
2022-12-09T22:41:33.753Z,100
2022-12-09T22:46:35.452Z,100
2022-12-09T22:51:36.999Z,100
2022-12-09T22:56:38.515Z,100
2022-12-09T23:01:40.299Z,100
2022-12-09T23:06:41.847Z,100
2022-12-09T23:11:43.288Z,100
2022-12-09T23:16:44.788Z,100
2022-12-09T23:21:46.905Z,100
2022-12-09T23:26:48.355Z,100
2022-12-09T23:31:49.989Z,100
2022-12-09T23:36:51.516Z,100
2022-12-09T23:41:52.908Z,100
2022-12-09T23:46:54.661Z,100
2022-12-09T23:51:56.154Z,100
2022-12-09T23:56:57.574Z,100
